createdAt,value
2018-05-31T00:02:19.481Z,11.37
2018-05-31T00:04:51.883Z,11.20
2018-05-31T00:07:24.724Z,10.63
2018-05-31T00:09:57.140Z,9.97
2018-05-31T00:12:29.423Z,10.10
2018-05-31T00:15:03.475Z,8.97
2018-05-31T00:17:36.728Z,10.17
2018-05-31T00:20:09.049Z,9.10
2018-05-31T00:22:42.515Z,11.13
2018-05-31T00:25:15.057Z,11.23
2018-05-31T00:27:47.693Z,9.77
2018-05-31T00:30:20.580Z,8.77
2018-05-31T00:32:52.974Z,10.10
2018-05-31T00:35:25.330Z,9.10
2018-05-31T00:37:58.072Z,8.97
2018-05-31T00:40:30.936Z,12.33
2018-05-31T00:43:03.389Z,9.70
2018-05-31T00:45:36.515Z,10.07
2018-05-31T00:48:09.296Z,9.40
2018-05-31T00:50:45.600Z,9.93
2018-05-31T00:53:19.530Z,9.27
2018-05-31T00:56:18.030Z,8.80
2018-05-31T00:58:50.480Z,9.40
2018-05-31T01:01:22.864Z,9.10
2018-05-31T01:03:55.200Z,8.20
2018-05-31T01:06:27.894Z,8.30
2018-05-31T01:09:01.531Z,9.80
2018-05-31T01:11:34.092Z,9.93
2018-05-31T01:14:06.751Z,10.23
2018-05-31T01:20:04.363Z,9.53
2018-05-31T01:22:36.926Z,9.90
2018-05-31T01:25:09.231Z,10.60
2018-05-31T01:27:42.349Z,11.77
2018-05-31T01:30:16.624Z,10.10
2018-05-31T01:32:48.979Z,11.80
2018-05-31T01:35:21.725Z,10.40
2018-05-31T01:38:33.597Z,11.07
2018-05-31T01:41:05.979Z,11.27
2018-05-31T01:43:40.792Z,11.90
2018-05-31T01:46:13.024Z,11.53
2018-05-31T01:48:46.279Z,9.83
2018-05-31T01:51:18.957Z,10.73
2018-05-31T01:53:51.250Z,10.57
2018-05-31T01:56:23.404Z,8.10
2018-05-31T01:58:56.086Z,11.20
2018-05-31T02:01:28.173Z,11.47
2018-05-31T02:04:01.214Z,13.43
2018-05-31T02:06:33.753Z,11.40
2018-05-31T02:09:06.237Z,11.57
2018-05-31T02:11:40.582Z,12.47
2018-05-31T02:14:13.378Z,10.97
2018-05-31T02:16:46.337Z,12.17
2018-05-31T02:19:18.554Z,13.37
2018-05-31T02:21:51.817Z,10.10
2018-05-31T02:24:24.757Z,12.90
2018-05-31T02:26:58.590Z,13.57
2018-05-31T02:29:31.717Z,13.40
2018-05-31T02:32:04.321Z,11.57
2018-05-31T02:34:37.268Z,10.73
2018-05-31T02:37:09.990Z,11.70
2018-05-31T02:39:42.651Z,11.87
2018-05-31T02:42:14.885Z,12.07
2018-05-31T02:44:47.797Z,10.73
2018-05-31T02:47:19.957Z,10.23
2018-05-31T02:49:52.125Z,11.30
2018-05-31T02:52:24.569Z,10.27
2018-05-31T02:54:56.799Z,9.77
2018-05-31T02:57:28.924Z,9.63
2018-05-31T03:00:03.715Z,10.00
2018-05-31T03:02:36.038Z,8.80
2018-05-31T03:05:08.358Z,9.13
2018-05-31T03:07:41.578Z,8.73
2018-05-31T03:10:14.001Z,8.07
2018-05-31T03:12:46.361Z,8.57
2018-05-31T03:15:19.243Z,8.80
2018-05-31T03:17:53.011Z,9.43
2018-05-31T03:20:25.307Z,11.07
2018-05-31T03:22:58.302Z,11.93
2018-05-31T03:25:30.925Z,13.23
2018-05-31T03:28:03.069Z,12.77
2018-05-31T03:30:35.696Z,11.60
2018-05-31T03:33:07.966Z,12.43
2018-05-31T03:35:40.140Z,12.47
2018-05-31T03:38:12.336Z,12.47
2018-05-31T03:40:44.474Z,11.82
2018-05-31T03:43:17.037Z,11.60
2018-05-31T03:45:50.414Z,11.75
2018-05-31T03:48:22.726Z,10.20
2018-05-31T03:50:58.006Z,10.70
2018-05-31T03:53:30.693Z,11.50
2018-05-31T03:56:02.921Z,9.73
2018-05-31T03:58:35.981Z,11.25
2018-05-31T04:01:08.629Z,10.70
2018-05-31T04:03:41.246Z,10.10
2018-05-31T04:06:14.112Z,10.43
2018-05-31T04:08:46.593Z,9.27
2018-05-31T04:11:20.265Z,10.37
2018-05-31T04:13:53.653Z,10.57
2018-05-31T04:16:26.257Z,9.90
2018-05-31T04:18:58.838Z,9.63
2018-05-31T04:21:31.604Z,10.85
2018-05-31T04:24:03.861Z,9.57
2018-05-31T04:26:36.407Z,9.57
2018-05-31T04:29:08.787Z,9.43
2018-05-31T04:31:41.880Z,10.27
2018-05-31T04:34:14.352Z,10.43
2018-05-31T04:36:46.786Z,10.15
2018-05-31T04:39:19.685Z,10.20
2018-05-31T04:41:52.601Z,9.97
2018-05-31T04:44:26.003Z,8.83
2018-05-31T04:46:59.378Z,9.27
2018-05-31T04:49:33.235Z,9.23
2018-05-31T04:52:05.623Z,8.73
2018-05-31T04:54:38.540Z,8.83
2018-05-31T04:57:11.932Z,8.30
2018-05-31T04:59:44.132Z,8.85
2018-05-31T05:02:16.743Z,8.17
2018-05-31T05:04:50.269Z,8.27
2018-05-31T05:07:22.772Z,7.37
2018-05-31T05:09:55.606Z,6.90
2018-05-31T05:12:28.093Z,6.90
2018-05-31T05:15:00.819Z,7.63
2018-05-31T05:17:36.092Z,7.33
2018-05-31T05:20:08.718Z,8.40
2018-05-31T05:22:41.019Z,8.57
2018-05-31T05:25:13.652Z,7.20
2018-05-31T05:27:45.972Z,7.70
2018-05-31T05:30:18.727Z,6.73
2018-05-31T05:32:51.568Z,5.50
2018-05-31T05:35:24.323Z,6.12
2018-05-31T05:37:58.112Z,5.43
2018-05-31T05:40:30.803Z,5.87
2018-05-31T05:43:07.185Z,5.00
2018-05-31T05:45:40.441Z,4.43
2018-05-31T05:48:13.256Z,4.23
2018-05-31T05:50:45.611Z,4.30
2018-05-31T05:53:18.300Z,3.97
2018-05-31T05:55:50.902Z,3.80
2018-05-31T05:58:23.326Z,4.13
2018-05-31T06:02:20.705Z,3.80
2018-05-31T06:04:53.348Z,3.77
2018-05-31T06:07:25.889Z,4.37
2018-05-31T06:09:59.024Z,4.37
2018-05-31T06:12:32.373Z,3.97
2018-05-31T06:15:06.832Z,3.77
2018-05-31T06:17:39.404Z,3.67
2018-05-31T06:20:12.245Z,3.57
2018-05-31T06:22:44.625Z,3.33
2018-05-31T06:25:17.033Z,3.87
2018-05-31T06:27:49.607Z,3.83
2018-05-31T06:30:22.398Z,3.47
2018-05-31T06:32:55.203Z,3.00
2018-05-31T06:35:28.181Z,3.07
2018-05-31T06:38:03.109Z,3.00
2018-05-31T06:40:36.454Z,3.17
2018-05-31T06:43:10.201Z,3.37
2018-05-31T06:45:42.777Z,2.80
2018-05-31T06:48:15.544Z,3.23
2018-05-31T06:50:51.484Z,3.30
2018-05-31T06:53:23.955Z,3.35
2018-05-31T06:55:57.283Z,2.97
2018-05-31T06:58:29.937Z,2.90
2018-05-31T07:01:05.142Z,2.93
2018-05-31T07:03:38.145Z,3.10
2018-05-31T07:06:10.782Z,2.90
2018-05-31T07:08:43.304Z,2.87
2018-05-31T07:11:16.473Z,2.57
2018-05-31T07:13:49.101Z,2.37
2018-05-31T07:16:22.554Z,2.40
2018-05-31T07:18:56.108Z,2.50
2018-05-31T07:21:28.628Z,2.80
2018-05-31T07:24:01.040Z,2.83
2018-05-31T07:26:33.800Z,3.08
2018-05-31T07:29:06.708Z,2.70
2018-05-31T07:31:40.360Z,2.60
2018-05-31T07:34:13.235Z,3.03
2018-05-31T07:36:46.184Z,2.90
2018-05-31T07:39:19.448Z,2.62
2018-05-31T07:41:52.415Z,2.60
2018-05-31T07:44:25.339Z,2.60
2018-05-31T07:46:57.981Z,2.70
2018-05-31T07:49:30.648Z,2.50
2018-05-31T07:52:03.317Z,2.43
2018-05-31T07:54:35.832Z,2.30
2018-05-31T07:57:09.672Z,2.67
2018-05-31T07:59:42.205Z,2.40
2018-05-31T08:02:14.882Z,3.10
2018-05-31T08:04:47.872Z,3.10
2018-05-31T08:07:21.574Z,2.80
2018-05-31T08:09:54.504Z,2.90
2018-05-31T08:12:27.697Z,2.70
2018-05-31T08:15:00.089Z,2.92
2018-05-31T08:17:36.091Z,2.30
2018-05-31T08:20:08.998Z,2.83
2018-05-31T08:22:41.648Z,2.60
2018-05-31T08:25:14.574Z,2.93
2018-05-31T08:27:47.715Z,2.40
2018-05-31T08:30:22.506Z,2.40
2018-05-31T08:32:55.344Z,2.60
2018-05-31T08:35:28.524Z,2.30
2018-05-31T08:38:01.205Z,2.58
2018-05-31T08:40:33.720Z,2.53
2018-05-31T08:43:06.784Z,2.43
2018-05-31T08:45:39.331Z,2.77
2018-05-31T08:48:11.825Z,2.30
2018-05-31T08:50:45.990Z,3.70
2018-05-31T08:53:20.327Z,2.23
2018-05-31T08:55:53.637Z,2.27
2018-05-31T08:58:26.965Z,2.57
2018-05-31T09:00:59.487Z,2.33
2018-05-31T09:03:32.104Z,2.23
2018-05-31T09:06:04.888Z,2.60
2018-05-31T09:08:40.151Z,2.57
2018-05-31T09:11:12.710Z,2.20
2018-05-31T09:13:46.045Z,2.20
2018-05-31T09:16:21.516Z,2.50
2018-05-31T09:18:55.593Z,2.40
2018-05-31T09:21:29.472Z,2.20
2018-05-31T09:24:02.386Z,2.30
2018-05-31T09:26:35.109Z,2.37
2018-05-31T09:29:08.062Z,2.30
2018-05-31T09:31:40.445Z,2.57
2018-05-31T09:34:13.017Z,2.50
2018-05-31T09:36:47.021Z,3.00
2018-05-31T09:39:21.493Z,3.20
2018-05-31T09:41:54.249Z,3.20
2018-05-31T09:44:27.576Z,2.90
2018-05-31T09:47:00.317Z,2.50
2018-05-31T09:49:33.865Z,2.60
2018-05-31T09:52:08.319Z,2.62
2018-05-31T09:54:41.521Z,2.63
2018-05-31T09:57:14.240Z,3.20
2018-05-31T09:59:46.767Z,3.03
2018-05-31T10:02:20.120Z,3.40
2018-05-31T10:04:54.413Z,3.90
2018-05-31T10:07:29.757Z,3.60
2018-05-31T10:10:03.360Z,4.27
2018-05-31T10:12:36.339Z,3.53
2018-05-31T10:15:09.277Z,3.50
2018-05-31T10:17:43.261Z,3.65
2018-05-31T10:20:27.799Z,3.50
2018-05-31T10:23:05.543Z,4.07
2018-05-31T10:25:44.077Z,2.70
2018-05-31T10:28:24.937Z,2.90
2018-05-31T10:31:02.531Z,2.93
2018-05-31T10:33:39.946Z,3.00
2018-05-31T10:36:17.649Z,2.83
2018-05-31T10:38:55.165Z,3.43
2018-05-31T10:41:33.487Z,3.43
2018-05-31T10:44:11.153Z,3.70
2018-05-31T10:46:44.226Z,3.20
2018-05-31T10:49:16.960Z,3.33
2018-05-31T10:51:51.085Z,3.13
2018-05-31T10:54:25.856Z,3.70
2018-05-31T10:56:58.794Z,3.47
2018-05-31T10:59:32.444Z,3.15
2018-05-31T11:02:05.692Z,3.53
2018-05-31T11:04:38.682Z,3.80
2018-05-31T11:07:11.980Z,3.90
2018-05-31T11:09:44.940Z,3.30
2018-05-31T11:12:17.803Z,3.70
2018-05-31T11:14:50.702Z,3.20
2018-05-31T11:17:23.845Z,3.63
2018-05-31T11:19:56.568Z,3.93
2018-05-31T11:22:32.575Z,3.60
2018-05-31T11:25:06.602Z,3.27
2018-05-31T11:27:39.960Z,3.97
2018-05-31T11:30:14.888Z,4.17
2018-05-31T11:32:47.395Z,4.57
2018-05-31T11:35:20.471Z,4.23
2018-05-31T11:37:53.022Z,4.00
2018-05-31T11:40:25.509Z,3.30
2018-05-31T11:42:59.382Z,4.30
2018-05-31T11:45:37.300Z,4.43
2018-05-31T11:48:10.074Z,3.60
2018-05-31T11:50:43.132Z,4.43
2018-05-31T11:53:17.244Z,4.20
2018-05-31T11:55:49.828Z,4.30
2018-05-31T11:58:22.597Z,4.50
2018-05-31T12:00:55.253Z,4.03
2018-05-31T12:03:28.904Z,4.30
2018-05-31T12:06:02.437Z,4.30
2018-05-31T12:08:39.421Z,4.80
2018-05-31T12:11:11.856Z,4.70
2018-05-31T12:13:44.898Z,4.50
2018-05-31T12:16:17.660Z,5.77
2018-05-31T12:18:51.364Z,4.57
2018-05-31T12:21:24.762Z,5.10
2018-05-31T12:23:58.270Z,5.90
2018-05-31T12:26:36.748Z,5.20
2018-05-31T12:29:10.172Z,5.13
2018-05-31T12:31:43.355Z,4.60
2018-05-31T12:34:15.868Z,4.10
2018-05-31T12:36:48.282Z,3.63
2018-05-31T12:39:21.264Z,4.27
2018-05-31T12:41:56.995Z,4.27
2018-05-31T12:44:29.385Z,4.33
2018-05-31T12:47:02.290Z,5.03
2018-05-31T12:49:35.998Z,4.07
2018-05-31T12:52:10.137Z,4.60
2018-05-31T12:54:47.189Z,3.83
2018-05-31T12:57:20.079Z,3.70
2018-05-31T12:59:52.772Z,4.27
2018-05-31T13:02:25.500Z,3.83
2018-05-31T13:04:58.201Z,4.03
2018-05-31T13:07:30.968Z,3.63
2018-05-31T13:10:04.018Z,4.90
2018-05-31T13:12:39.509Z,3.37
2018-05-31T13:15:15.558Z,4.23
2018-05-31T13:17:49.037Z,5.03
2018-05-31T13:20:21.594Z,4.10
2018-05-31T13:22:54.172Z,3.47
2018-05-31T13:25:28.852Z,4.33
2018-05-31T13:28:01.980Z,5.50
2018-05-31T13:30:36.188Z,5.67
2018-05-31T13:33:10.413Z,5.93
2018-05-31T13:35:46.166Z,5.30
2018-05-31T13:38:19.085Z,4.83
2018-05-31T13:40:53.217Z,4.97
2018-05-31T13:43:26.732Z,4.23
2018-05-31T13:46:00.487Z,4.00
2018-05-31T13:48:32.992Z,4.70
2018-05-31T13:51:05.644Z,3.93
2018-05-31T13:53:38.209Z,4.70
2018-05-31T13:56:11.593Z,4.30
2018-05-31T13:58:51.404Z,4.03
2018-05-31T14:01:24.445Z,4.10
2018-05-31T14:03:58.574Z,4.13
2018-05-31T14:06:36.197Z,4.13
2018-05-31T14:09:13.601Z,4.27
2018-05-31T14:11:54.829Z,3.70
2018-05-31T14:14:27.861Z,4.00
2018-05-31T14:17:03.049Z,3.83
2018-05-31T14:19:38.328Z,4.00
2018-05-31T14:22:11.669Z,4.00
2018-05-31T14:24:50.270Z,3.60
2018-05-31T14:27:26.141Z,3.80
2018-05-31T14:29:58.849Z,3.40
2018-05-31T14:32:32.093Z,4.17
2018-05-31T14:35:07.532Z,3.33
2018-05-31T14:37:40.279Z,3.80
2018-05-31T14:40:13.582Z,3.37
2018-05-31T14:42:52.081Z,3.70
2018-05-31T14:45:25.182Z,4.30
2018-05-31T14:47:58.448Z,3.63
2018-05-31T14:50:30.929Z,3.30
2018-05-31T14:53:03.572Z,3.97
2018-05-31T14:55:36.593Z,3.73
2018-05-31T14:58:09.873Z,4.10
2018-05-31T15:00:44.785Z,3.53
2018-05-31T15:03:19.233Z,2.83
2018-05-31T15:05:55.791Z,3.23
2018-05-31T15:08:28.483Z,3.30
2018-05-31T15:11:02.348Z,3.43
2018-05-31T15:13:34.964Z,3.33
2018-05-31T15:16:07.709Z,3.70
2018-05-31T15:18:40.939Z,3.20
2018-05-31T15:21:14.085Z,3.27
2018-05-31T15:23:50.068Z,3.13
2018-05-31T15:26:24.994Z,3.40
2018-05-31T15:28:57.956Z,3.17
2018-05-31T15:31:30.646Z,3.00
2018-05-31T15:34:03.757Z,3.43
2018-05-31T15:36:36.714Z,3.30
2018-05-31T15:39:09.350Z,3.37
2018-05-31T15:41:43.017Z,3.70
2018-05-31T15:44:15.948Z,3.10
2018-05-31T15:46:49.385Z,3.35
2018-05-31T15:49:24.324Z,3.53
2018-05-31T15:52:00.583Z,3.20
2018-05-31T15:54:33.495Z,3.07
2018-05-31T15:57:06.633Z,3.23
2018-05-31T15:59:39.128Z,3.00
2018-05-31T16:02:11.758Z,2.87
2018-05-31T16:04:44.777Z,2.67
2018-05-31T16:07:17.254Z,3.07
2018-05-31T16:09:55.156Z,5.27
2018-05-31T16:12:28.637Z,5.10
2018-05-31T16:15:05.154Z,5.00
2018-05-31T16:17:37.865Z,4.70
2018-05-31T16:20:12.965Z,4.70
2018-05-31T16:22:46.594Z,5.00
2018-05-31T16:25:19.097Z,4.60
2018-05-31T16:27:54.102Z,5.70
2018-05-31T16:30:27.931Z,5.70
2018-05-31T16:33:07.365Z,5.07
2018-05-31T16:35:40.495Z,4.43
2018-05-31T16:38:14.195Z,5.40
2018-05-31T16:40:46.631Z,5.20
2018-05-31T16:43:20.992Z,5.73
2018-05-31T16:45:55.528Z,5.83
2018-05-31T16:48:29.334Z,5.27
2018-05-31T16:51:05.621Z,6.20
2018-05-31T16:53:38.206Z,5.97
2018-05-31T16:56:10.782Z,5.40
2018-05-31T16:58:44.759Z,5.80
2018-05-31T17:01:17.365Z,6.20
2018-05-31T17:03:50.030Z,5.10
2018-05-31T17:06:23.149Z,5.67
2018-05-31T17:08:59.659Z,5.57
2018-05-31T17:11:33.589Z,4.97
2018-05-31T17:14:07.861Z,4.90
2018-05-31T17:16:41.203Z,4.30
2018-05-31T17:19:13.877Z,4.23
2018-05-31T17:21:46.630Z,5.30
2018-05-31T17:24:19.420Z,4.73
2018-05-31T17:26:52.166Z,4.40
2018-05-31T17:29:25.517Z,4.60
2018-05-31T17:32:04.814Z,4.60
2018-05-31T17:34:37.477Z,5.23
2018-05-31T17:37:10.478Z,4.60
2018-05-31T17:39:42.950Z,5.20
2018-05-31T17:42:15.550Z,4.90
2018-05-31T17:44:48.217Z,5.22
2018-05-31T17:47:21.128Z,5.40
2018-05-31T17:49:54.267Z,6.27
2018-05-31T17:52:27.681Z,6.73
2018-05-31T17:55:06.552Z,8.10
2018-05-31T17:57:39.145Z,8.27
2018-05-31T18:00:13.870Z,8.07
2018-05-31T18:02:47.617Z,11.00
2018-05-31T18:05:20.264Z,10.15
2018-05-31T18:07:53.691Z,10.60
2018-05-31T18:10:29.191Z,10.50
2018-05-31T18:13:12.331Z,10.67
2018-05-31T18:15:46.614Z,9.43
2018-05-31T18:18:21.804Z,9.77
2018-05-31T18:20:55.951Z,11.50
2018-05-31T18:23:29.729Z,11.10
2018-05-31T18:26:06.037Z,9.87
2018-05-31T18:28:38.771Z,10.80
2018-05-31T18:31:13.289Z,10.50
2018-05-31T18:33:46.709Z,10.40
2018-05-31T18:36:19.713Z,10.80
2018-05-31T18:38:52.453Z,9.93
2018-05-31T18:41:25.361Z,10.73
2018-05-31T18:43:58.881Z,11.20
2018-05-31T18:46:31.824Z,10.37
2018-05-31T18:49:05.712Z,11.70
2018-05-31T18:51:38.356Z,12.32
2018-05-31T18:54:11.107Z,13.17
2018-05-31T18:56:43.751Z,11.37
2018-05-31T18:59:16.577Z,10.97
2018-05-31T19:01:49.181Z,12.07
2018-05-31T19:04:22.254Z,11.67
2018-05-31T19:06:54.670Z,12.27
2018-05-31T19:09:36.653Z,12.47
2018-05-31T19:12:09.155Z,12.00
2018-05-31T19:14:42.197Z,12.57
2018-05-31T19:17:15.099Z,12.00
2018-05-31T19:19:58.412Z,11.67
2018-05-31T19:22:30.958Z,10.80
2018-05-31T19:25:09.073Z,11.03
2018-05-31T19:27:41.737Z,10.40
2018-05-31T19:30:36.390Z,11.03
2018-05-31T19:33:09.054Z,10.90
2018-05-31T19:36:01.184Z,10.40
2018-05-31T19:38:33.809Z,10.95
2018-05-31T19:41:09.237Z,11.20
2018-05-31T19:44:03.486Z,10.60
2018-05-31T19:46:47.941Z,11.00
2018-05-31T19:49:20.827Z,10.70
2018-05-31T19:52:13.284Z,11.87
2018-05-31T19:54:46.143Z,10.47
2018-05-31T19:57:18.901Z,11.60
2018-05-31T20:00:12.682Z,11.37
2018-05-31T20:03:02.548Z,11.35
2018-05-31T20:05:36.264Z,11.10
2018-05-31T20:08:09.703Z,11.57
2018-05-31T20:10:42.255Z,12.70
2018-05-31T20:13:15.501Z,12.00
2018-05-31T20:15:47.928Z,11.27
2018-05-31T20:18:20.770Z,11.07
2018-05-31T20:20:54.204Z,12.07
2018-05-31T20:23:28.359Z,11.67
2018-05-31T20:26:01.236Z,11.57
2018-05-31T20:28:34.933Z,12.07
2018-05-31T20:31:07.588Z,13.83
2018-05-31T20:33:41.559Z,12.30
2018-05-31T20:36:15.241Z,14.47
2018-05-31T20:38:49.141Z,15.13
2018-05-31T20:41:21.980Z,11.77
2018-05-31T20:43:54.984Z,12.20
2018-05-31T20:46:27.510Z,12.70
2018-05-31T20:49:00.158Z,10.93
2018-05-31T20:51:35.679Z,13.23
2018-05-31T20:54:09.574Z,13.17
2018-05-31T20:56:42.257Z,13.55
2018-05-31T20:59:15.520Z,12.65
2018-05-31T21:01:48.493Z,13.20
2018-05-31T21:04:21.937Z,12.43
2018-05-31T21:06:55.917Z,14.27
2018-05-31T21:09:29.117Z,14.43
2018-05-31T21:12:01.654Z,16.70
2018-05-31T21:14:34.885Z,14.37
2018-05-31T21:17:07.651Z,14.17
2018-05-31T21:19:40.448Z,17.35
2018-05-31T21:22:13.834Z,18.77
2018-05-31T21:24:49.095Z,15.50
2018-05-31T21:27:22.662Z,18.60
2018-05-31T21:29:55.641Z,18.30
2018-05-31T21:32:28.178Z,15.80
2018-05-31T21:35:00.763Z,17.77
2018-05-31T21:37:34.901Z,17.63
2018-05-31T21:40:07.825Z,19.03
2018-05-31T21:42:40.297Z,19.33
2018-05-31T21:45:16.430Z,17.80
2018-05-31T21:47:50.814Z,16.80
2018-05-31T21:50:23.842Z,17.30
2018-05-31T21:52:58.836Z,15.20
2018-05-31T21:55:32.780Z,15.57
2018-05-31T21:58:06.740Z,14.20
2018-05-31T22:00:55.759Z,15.43
2018-05-31T22:03:30.518Z,17.73
2018-05-31T22:06:04.813Z,17.70
2018-05-31T22:08:38.850Z,14.70
2018-05-31T22:11:12.821Z,15.40
2018-05-31T22:13:46.396Z,18.17
2018-05-31T22:16:22.323Z,14.83
2018-05-31T22:18:55.322Z,15.73
2018-05-31T22:21:33.131Z,20.67
2018-05-31T22:24:08.256Z,21.53
2018-05-31T22:26:41.102Z,21.33
2018-05-31T22:29:13.910Z,24.10
2018-05-31T22:31:46.945Z,21.27
2018-05-31T22:34:20.118Z,24.63
2018-05-31T22:36:52.870Z,26.90
2018-05-31T22:39:25.970Z,23.67
2018-05-31T22:41:58.873Z,23.40
2018-05-31T22:44:34.277Z,28.27
2018-05-31T22:47:07.434Z,23.73
2018-05-31T22:49:41.650Z,22.53
2018-05-31T22:52:14.649Z,25.13
2018-05-31T22:54:48.118Z,25.27
2018-05-31T22:57:21.456Z,25.12
2018-05-31T22:59:55.232Z,26.07
2018-05-31T23:02:28.033Z,18.73
2018-05-31T23:05:02.963Z,19.60
2018-05-31T23:07:35.804Z,22.73
2018-05-31T23:10:08.378Z,21.70
2018-05-31T23:12:41.757Z,20.87
2018-05-31T23:15:16.774Z,23.03
2018-05-31T23:17:49.699Z,23.97
2018-05-31T23:20:22.761Z,25.43
2018-05-31T23:22:55.483Z,27.90
2018-05-31T23:25:28.081Z,27.73
2018-05-31T23:28:01.218Z,31.02
2018-05-31T23:30:34.053Z,25.67
2018-05-31T23:33:06.677Z,30.83
2018-05-31T23:35:40.017Z,27.67
2018-05-31T23:38:13.151Z,26.70
2018-05-31T23:40:46.632Z,35.73
2018-05-31T23:43:19.807Z,29.70
2018-05-31T23:45:52.999Z,31.23
2018-05-31T23:48:25.729Z,24.17
2018-05-31T23:50:59.319Z,28.40
2018-05-31T23:53:32.641Z,25.13
2018-05-31T23:56:05.273Z,26.43
2018-05-31T23:58:39.471Z,26.63
